Time;durP1;ratioP1;P1;durP2;ratioP2;P2;SDS_P1;SDS_P2;PMS_P1;PMS_P2;Temp;Humidity;BMP_temperature;BMP_pressure;BME280_temperature;BME280_humidity;BME280_pressure;Samples;Min_cycle;Max_cycle;Signal;HPM_P1;HPM_P2
2022/08/21 07:46:09;;;;;;;;;;;24.80;95.20;;;;;;5150974;22;20019;-83
2022/08/21 07:48:36;;;;;;;;;;;24.80;95.20;;;;;;5045286;28;19949;-84
2022/08/21 07:51:05;;;;;;;;;;;24.80;95.20;;;;;;5042965;28;20015;-83
2022/08/21 07:53:31;;;;;;;;;;;24.80;95.20;;;;;;5045367;28;20446;-83
2022/08/21 07:55:58;;;;;;;;;;;24.80;95.10;;;;;;5044204;28;20424;-84
2022/08/21 07:58:25;;;;;;;;;;;24.80;94.90;;;;;;5041639;28;19991;-83
2022/08/21 08:00:52;;;;;;;;;;;24.70;94.70;;;;;;5040950;28;19921;-82
2022/08/21 08:03:20;;;;;;;;;;;24.70;94.60;;;;;;5041840;28;20012;-84
2022/08/21 08:05:46;;;;;;;;;;;24.70;94.60;;;;;;5043284;28;19960;-80
2022/08/21 08:08:13;;;;;;;;;;;24.70;94.50;;;;;;5046741;28;19952;-81
2022/08/21 08:10:40;;;;;;;;;;;24.70;94.30;;;;;;5041726;28;19992;-79
2022/08/21 08:13:07;;;;;;;;;;;24.70;94.20;;;;;;5041499;28;20015;-83
2022/08/21 08:15:33;;;;;;;;;;;24.70;94.00;;;;;;5043642;28;20020;-83
2022/08/21 08:18:00;;;;;;;;;;;24.70;93.80;;;;;;5044580;28;20011;-81
2022/08/21 08:20:29;;;;;;;;;;;24.70;93.60;;;;;;5043348;28;19928;-82
2022/08/21 08:22:55;;;;;;;;;;;24.60;93.30;;;;;;5042611;28;20258;-84
2022/08/21 08:25:23;;;;;;;;;;;24.60;93.40;;;;;;5041123;28;19964;-80
2022/08/21 08:27:50;;;;;;;;;;;24.60;92.90;;;;;;5040022;28;19928;-81
2022/08/21 08:30:18;;;;;;;;;;;24.60;92.90;;;;;;5038225;28;20007;-79
2022/08/21 08:32:45;;;;;;;;;;;24.60;92.60;;;;;;5038615;28;19928;-80
2022/08/21 08:35:12;;;;;;;;;;;24.60;92.30;;;;;;5036830;28;20008;-81
2022/08/21 08:37:40;;;;;;;;;;;24.60;92.10;;;;;;5037246;28;19959;-81
2022/08/21 08:40:10;;;;;;;;;;;24.60;92.00;;;;;;5036920;28;20020;-81
2022/08/21 08:42:37;;;;;;;;;;;24.60;91.80;;;;;;5037510;28;20008;-81
2022/08/21 08:45:06;;;;;;;;;;;24.60;91.70;;;;;;5037096;28;20011;-81
2022/08/21 08:47:34;;;;;;;;;;;24.60;91.50;;;;;;5036982;28;20342;-81
2022/08/21 08:50:04;;;;;;;;;;;24.60;91.30;;;;;;5036626;28;20382;-81
2022/08/21 08:52:31;;;;;;;;;;;24.60;91.10;;;;;;5036829;28;20369;-81
2022/08/21 08:55:02;;;;;;;;;;;24.60;91.00;;;;;;5037351;28;19979;-82
2022/08/21 08:57:30;;;;;;;;;;;24.60;90.80;;;;;;5037165;28;20324;-82
2022/08/21 08:59:57;;;;;;;;;;;24.60;90.60;;;;;;5036772;28;19921;-82
2022/08/21 09:02:27;;;;;;;;;;;24.60;90.50;;;;;;5037344;28;20359;-81
2022/08/21 09:04:54;;;;;;;;;;;24.60;90.30;;;;;;5036834;28;20017;-83
2022/08/21 09:07:26;;;;;;;;;;;24.60;90.00;;;;;;5037295;28;20328;-82
2022/08/21 09:10:00;;;;;;;;;;;24.60;90.00;;;;;;5037869;28;20011;-82
2022/08/21 09:12:33;;;;;;;;;;;24.60;90.00;;;;;;5036674;28;19921;-82
2022/08/21 09:15:04;;;;;;;;;;;24.60;89.70;;;;;;5036875;28;20007;-83
2022/08/21 09:17:36;;;;;;;;;;;24.60;89.30;;;;;;5037099;28;20000;-83
2022/08/21 09:20:09;;;;;;;;;;;24.60;88.90;;;;;;5036173;28;19947;-83
2022/08/21 09:22:43;;;;;;;;;;;24.60;88.60;;;;;;5036945;28;19928;-82
2022/08/21 09:25:13;;;;;;;;;;;24.60;88.30;;;;;;5036642;28;20020;-83
2022/08/21 09:27:41;;;;;;;;;;;24.60;87.90;;;;;;5036926;28;20011;-83
2022/08/21 09:30:09;;;;;;;;;;;24.60;87.60;;;;;;5037117;28;20011;-83
2022/08/21 09:32:36;;;;;;;;;;;24.60;87.30;;;;;;5036594;28;19920;-83
2022/08/21 09:35:05;;;;;;;;;;;24.60;86.90;;;;;;5036684;28;20024;-83
2022/08/21 09:37:34;;;;;;;;;;;24.60;86.60;;;;;;5036797;28;19984;-83
2022/08/21 09:40:01;;;;;;;;;;;24.60;86.30;;;;;;5036758;28;19921;-83
2022/08/21 09:42:30;;;;;;;;;;;24.60;86.10;;;;;;5037376;28;19928;-83
2022/08/21 09:45:10;;;;;;;;;;;24.60;85.80;;;;;;5036573;28;19968;-83
2022/08/21 09:47:36;;;;;;;;;;;24.60;85.40;;;;;;5036487;28;19999;-83
2022/08/21 09:50:14;;;;;;;;;;;24.60;85.40;;;;;;5037102;28;20019;-83
2022/08/21 09:52:45;;;;;;;;;;;24.60;84.70;;;;;;5037226;28;19956;-83
2022/08/21 09:57:38;;;;;;;;;;;24.60;84.50;;;;;;5037036;28;20280;-83
2022/08/21 09:58:02;;;;;;;;;;;24.60;84.40;;;;;;5036884;28;19928;-83
2022/08/21 10:00:32;;;;;;;;;;;24.60;84.40;;;;;;5036675;28;19925;-83
2022/08/21 10:03:09;;;;;;;;;;;24.60;84.00;;;;;;5037220;28;20008;-83
2022/08/21 10:05:36;;;;;;;;;;;24.60;83.70;;;;;;5037407;28;20020;-83
2022/08/21 10:08:04;;;;;;;;;;;24.60;83.40;;;;;;5038479;28;19983;-83
2022/08/21 10:10:31;;;;;;;;;;;24.60;83.20;;;;;;5037666;28;19975;-83
2022/08/21 10:13:02;;;;;;;;;;;24.60;82.90;;;;;;5037823;28;19921;-83
2022/08/21 10:15:36;;;;;;;;;;;24.60;82.60;;;;;;5037037;28;20012;-83
2022/08/21 10:18:06;;;;;;;;;;;24.60;82.30;;;;;;5035200;28;20011;-83
2022/08/21 10:20:37;;;;;;;;;;;24.60;82.00;;;;;;5034917;28;19957;-83
2022/08/21 10:23:07;;;;;;;;;;;24.60;81.80;;;;;;5035189;28;19920;-83
2022/08/21 10:25:38;;;;;;;;;;;24.60;81.60;;;;;;5035169;28;20348;-83
2022/08/21 10:28:08;;;;;;;;;;;24.70;81.50;;;;;;5034498;28;20011;-83
2022/08/21 10:30:39;;;;;;;;;;;24.60;81.10;;;;;;5036473;28;20023;-83
2022/08/21 10:33:13;;;;;;;;;;;24.60;80.90;;;;;;5035782;28;20015;-83
2022/08/21 10:35:42;;;;;;;;;;;24.60;80.70;;;;;;5036587;28;19992;-83
2022/08/21 10:38:23;;;;;;;;;;;24.70;80.60;;;;;;5035674;28;19920;-83
2022/08/21 10:40:55;;;;;;;;;;;24.70;80.40;;;;;;5012934;28;20443;-83
2022/08/21 10:43:26;;;;;;;;;;;24.70;80.10;;;;;;5035852;28;20004;-83
2022/08/21 10:46:02;;;;;;;;;;;24.70;80.00;;;;;;5037981;28;19959;-83
2022/08/21 10:48:32;;;;;;;;;;;24.70;79.80;;;;;;5040212;28;20016;-83
2022/08/21 10:51:05;;;;;;;;;;;24.70;79.50;;;;;;5040085;28;20329;-83
2022/08/21 10:53:36;;;;;;;;;;;24.70;79.20;;;;;;5039465;28;20371;-83
2022/08/21 10:56:05;;;;;;;;;;;24.70;79.00;;;;;;5039403;28;19928;-83
2022/08/21 10:58:36;;;;;;;;;;;24.70;78.70;;;;;;5040078;28;20392;-83
2022/08/21 11:01:09;;;;;;;;;;;24.70;78.70;;;;;;5039569;28;20355;-82
2022/08/21 11:03:39;;;;;;;;;;;24.70;78.70;;;;;;5040131;28;19972;-82
2022/08/21 11:06:09;;;;;;;;;;;24.70;78.70;;;;;;5040597;28;20011;-83
2022/08/21 11:08:38;;;;;;;;;;;24.70;78.50;;;;;;5040857;28;20008;-83
2022/08/21 11:11:09;;;;;;;;;;;24.70;78.20;;;;;;5039825;28;20007;-83
2022/08/21 11:13:39;;;;;;;;;;;24.70;78.00;;;;;;5039067;28;20027;-83
2022/08/21 11:16:11;;;;;;;;;;;24.70;77.80;;;;;;5038400;28;20020;-81
2022/08/21 11:18:39;;;;;;;;;;;24.70;77.50;;;;;;5039679;28;20372;-82
2022/08/21 11:21:15;;;;;;;;;;;24.70;77.30;;;;;;5038722;28;20007;-82
2022/08/21 11:23:44;;;;;;;;;;;24.70;77.10;;;;;;5039358;28;19971;-83
2022/08/21 11:26:15;;;;;;;;;;;24.70;76.90;;;;;;5039130;28;20008;-82
2022/08/21 11:28:45;;;;;;;;;;;24.70;76.70;;;;;;5039166;28;20028;-82
2022/08/21 11:31:19;;;;;;;;;;;24.70;76.50;;;;;;5039001;28;20024;-82
2022/08/21 11:33:53;;;;;;;;;;;24.70;76.40;;;;;;5039084;28;20347;-82
2022/08/21 11:36:23;;;;;;;;;;;24.70;76.20;;;;;;5040154;28;19921;-83
2022/08/21 11:38:53;;;;;;;;;;;24.70;76.00;;;;;;5040034;28;19921;-83
2022/08/21 11:41:24;;;;;;;;;;;24.70;75.80;;;;;;5041318;28;20007;-82
2022/08/21 11:43:54;;;;;;;;;;;24.70;75.60;;;;;;5038184;28;20396;-80
2022/08/21 15:24:26;;;;;;;;;;;25.00;64.80;;;;;;5658867;22;19975;-78
2022/08/21 15:26:54;;;;;;;;;;;25.00;64.80;;;;;;5041747;28;20004;-78
2022/08/21 15:29:21;;;;;;;;;;;25.00;64.80;;;;;;5040683;28;20019;-78
2022/08/21 15:31:53;;;;;;;;;;;25.00;64.70;;;;;;5039857;28;19976;-78
2022/08/21 15:34:20;;;;;;;;;;;25.00;64.70;;;;;;5039122;28;20384;-78
2022/08/21 15:36:46;;;;;;;;;;;25.00;64.70;;;;;;5039936;28;19928;-77
2022/08/21 15:39:13;;;;;;;;;;;25.00;64.60;;;;;;5040110;28;19920;-77
2022/08/21 15:41:41;;;;;;;;;;;25.00;64.50;;;;;;5040162;28;19925;-77
2022/08/21 15:44:10;;;;;;;;;;;25.00;64.40;;;;;;5039379;28;20007;-77
2022/08/21 15:46:37;;;;;;;;;;;25.00;64.40;;;;;;5038316;28;19928;-77
2022/08/21 15:49:04;;;;;;;;;;;25.00;64.30;;;;;;5039349;28;19921;-77
2022/08/21 15:51:31;;;;;;;;;;;24.90;64.20;;;;;;5039755;28;19972;-77
2022/08/21 15:53:57;;;;;;;;;;;24.90;64.10;;;;;;5040349;28;20008;-77
2022/08/21 15:56:25;;;;;;;;;;;25.00;64.10;;;;;;5040334;28;19931;-77
2022/08/21 15:58:58;;;;;;;;;;;24.90;64.00;;;;;;5038569;28;19932;-77
2022/08/21 16:01:24;;;;;;;;;;;24.90;63.90;;;;;;5039621;28;20356;-77
2022/08/21 16:03:53;;;;;;;;;;;24.90;63.90;;;;;;5040145;28;20015;-77
2022/08/21 16:06:20;;;;;;;;;;;24.90;63.80;;;;;;5040363;28;20008;-77
2022/08/21 16:08:46;;;;;;;;;;;24.90;63.70;;;;;;5039542;28;20000;-77
2022/08/21 16:11:14;;;;;;;;;;;24.90;63.60;;;;;;5037421;28;19921;-78
2022/08/21 16:13:43;;;;;;;;;;;24.90;63.60;;;;;;5037499;28;20008;-78
2022/08/21 16:16:11;;;;;;;;;;;24.90;63.50;;;;;;5038670;28;20334;-81
2022/08/21 16:18:38;;;;;;;;;;;24.90;63.40;;;;;;5040707;28;20044;-81
2022/08/21 16:21:06;;;;;;;;;;;24.90;63.40;;;;;;5040255;28;20362;-81
2022/08/21 16:23:34;;;;;;;;;;;24.90;63.40;;;;;;5040412;28;19921;-81
2022/08/21 16:26:00;;;;;;;;;;;24.90;63.30;;;;;;5039674;28;19921;-81
2022/08/21 16:28:28;;;;;;;;;;;24.90;63.20;;;;;;5040237;28;20016;-81
2022/08/21 16:30:54;;;;;;;;;;;24.90;63.90;;;;;;5040725;28;19989;-82
2022/08/21 16:33:25;;;;;;;;;;;24.90;63.10;;;;;;5040641;28;19927;-80
2022/08/21 16:35:51;;;;;;;;;;;24.90;63.00;;;;;;5039758;28;20364;-81
2022/08/21 16:38:18;;;;;;;;;;;24.90;63.10;;;;;;5038523;28;20009;-81
2022/08/21 16:40:45;;;;;;;;;;;24.90;63.20;;;;;;5038023;28;19921;-80
2022/08/21 16:43:12;;;;;;;;;;;24.90;63.40;;;;;;5037704;28;20012;-80
2022/08/21 16:45:39;;;;;;;;;;;24.90;63.50;;;;;;5040390;28;20254;-84
2022/08/21 16:48:08;;;;;;;;;;;24.90;63.70;;;;;;5039986;28;19921;-83
2022/08/21 16:50:37;;;;;;;;;;;24.90;63.80;;;;;;5039707;28;19921;-83
2022/08/21 16:53:03;;;;;;;;;;;25.00;63.90;;;;;;5043034;28;20011;-83
2022/08/21 16:55:30;;;;;;;;;;;24.90;63.90;;;;;;5042070;28;20410;-82
2022/08/21 16:57:58;;;;;;;;;;;24.90;64.00;;;;;;5043040;28;20392;-81
2022/08/21 17:00:24;;;;;;;;;;;24.90;64.20;;;;;;5044779;28;20012;-82
2022/08/21 17:02:53;;;;;;;;;;;24.90;64.40;;;;;;5047361;28;19952;-81
2022/08/21 17:05:20;;;;;;;;;;;24.90;64.60;;;;;;5046761;28;19960;-83
2022/08/21 17:07:49;;;;;;;;;;;25.00;64.80;;;;;;5045500;28;19921;-82
2022/08/21 17:10:17;;;;;;;;;;;25.00;65.00;;;;;;5044843;28;19943;-82
2022/08/21 17:12:46;;;;;;;;;;;25.00;65.90;;;;;;5044819;28;19927;-83
2022/08/21 17:15:17;;;;;;;;;;;25.00;65.30;;;;;;5045736;28;20023;-82
2022/08/21 17:17:43;;;;;;;;;;;25.00;65.50;;;;;;5043795;28;19921;-82
2022/08/21 17:20:10;;;;;;;;;;;25.00;65.70;;;;;;5039306;28;20059;-83
2022/08/21 17:22:37;;;;;;;;;;;25.00;65.90;;;;;;5039036;28;20019;-81
2022/08/21 17:25:06;;;;;;;;;;;25.00;66.00;;;;;;5039295;28;19960;-82
2022/08/21 17:27:33;;;;;;;;;;;25.00;66.30;;;;;;5041421;28;20390;-83
2022/08/21 17:30:00;;;;;;;;;;;25.00;66.50;;;;;;5039294;28;19921;-83
2022/08/21 17:32:27;;;;;;;;;;;25.00;66.80;;;;;;5038067;28;19925;-84
2022/08/21 17:34:53;;;;;;;;;;;25.00;67.10;;;;;;5041115;28;19956;-85
2022/08/21 17:37:20;;;;;;;;;;;25.00;67.10;;;;;;5039770;28;20116;-83
2022/08/21 17:39:47;;;;;;;;;;;25.00;67.10;;;;;;5040411;28;19921;-83
2022/08/21 17:42:15;;;;;;;;;;;25.00;67.10;;;;;;5041176;28;20012;-83
2022/08/21 17:44:43;;;;;;;;;;;25.00;67.20;;;;;;5039423;28;19971;-83
2022/08/21 17:47:10;;;;;;;;;;;25.00;67.50;;;;;;5038836;28;19961;-83
2022/08/21 17:49:36;;;;;;;;;;;25.00;67.70;;;;;;5038895;28;19964;-83
2022/08/21 17:52:04;;;;;;;;;;;25.00;67.80;;;;;;5038125;28;19957;-83
2022/08/21 17:54:30;;;;;;;;;;;24.90;67.90;;;;;;5039896;28;20017;-83
2022/08/21 17:56:57;;;;;;;;;;;24.90;68.00;;;;;;5039304;28;20008;-82
2022/08/21 17:59:25;;;;;;;;;;;24.90;68.20;;;;;;5038635;28;20023;-82
2022/08/21 18:01:56;;;;;;;;;;;24.90;68.30;;;;;;5039747;28;20015;-83
2022/08/21 18:04:23;;;;;;;;;;;24.90;68.40;;;;;;5039778;28;19928;-82
2022/08/21 18:06:49;;;;;;;;;;;24.90;68.50;;;;;;5039085;28;20008;-82
2022/08/21 18:09:17;;;;;;;;;;;24.90;68.60;;;;;;5038954;28;19928;-82
2022/08/21 18:11:43;;;;;;;;;;;24.90;68.80;;;;;;5040064;28;19921;-82
2022/08/21 18:14:11;;;;;;;;;;;24.90;68.90;;;;;;5039599;28;20026;-83
2022/08/21 18:16:39;;;;;;;;;;;24.90;69.10;;;;;;5036106;28;19928;-83
2022/08/21 18:19:09;;;;;;;;;;;24.90;69.90;;;;;;5037072;28;19952;-83
2022/08/21 18:21:36;;;;;;;;;;;24.90;69.30;;;;;;5038225;28;19921;-83
2022/08/21 18:24:02;;;;;;;;;;;24.90;69.30;;;;;;5039087;28;20418;-83
2022/08/21 18:26:30;;;;;;;;;;;24.90;69.30;;;;;;5041228;28;19976;-83
2022/08/21 18:28:59;;;;;;;;;;;24.80;69.30;;;;;;5039585;28;20016;-83
2022/08/21 18:31:27;;;;;;;;;;;24.80;69.40;;;;;;5040580;28;19921;-84
2022/08/21 18:33:55;;;;;;;;;;;24.80;69.40;;;;;;5034461;28;20015;-84
2022/08/21 18:36:22;;;;;;;;;;;24.80;69.50;;;;;;5034102;28;20008;-84
2022/08/21 18:38:49;;;;;;;;;;;24.80;69.50;;;;;;5034180;28;19921;-84
2022/08/21 18:41:17;;;;;;;;;;;24.80;69.50;;;;;;5033883;28;19921;-84
2022/08/21 18:43:44;;;;;;;;;;;24.80;69.90;;;;;;5033691;28;20377;-84
2022/08/21 18:46:11;;;;;;;;;;;24.80;69.50;;;;;;5033968;28;19925;-84
2022/08/21 18:48:37;;;;;;;;;;;24.80;69.60;;;;;;5033913;28;19928;-84
2022/08/21 18:51:06;;;;;;;;;;;24.80;69.50;;;;;;5033588;28;19921;-84
2022/08/21 18:53:33;;;;;;;;;;;24.80;69.50;;;;;;5033637;28;19947;-83
2022/08/21 18:55:59;;;;;;;;;;;24.70;69.40;;;;;;5033682;28;20027;-84
2022/08/21 18:58:28;;;;;;;;;;;24.70;69.40;;;;;;5036136;28;20414;-83
2022/08/21 19:00:54;;;;;;;;;;;24.70;69.50;;;;;;5040925;28;19960;-84
2022/08/21 19:03:22;;;;;;;;;;;24.70;69.40;;;;;;5041600;28;19960;-83
2022/08/21 19:05:49;;;;;;;;;;;24.70;69.50;;;;;;5040288;28;19953;-83
2022/08/21 19:08:18;;;;;;;;;;;24.70;69.40;;;;;;5042702;28;20016;-83
2022/08/21 19:10:45;;;;;;;;;;;24.70;69.40;;;;;;5044637;28;20008;-84
2022/08/21 19:13:13;;;;;;;;;;;24.70;69.50;;;;;;5044756;28;19924;-83
2022/08/21 19:15:41;;;;;;;;;;;24.70;69.40;;;;;;5043767;28;20007;-82
2022/08/21 19:18:11;;;;;;;;;;;24.70;69.40;;;;;;5043876;28;19960;-82
2022/08/21 19:20:40;;;;;;;;;;;24.70;69.40;;;;;;5044093;28;19964;-83
2022/08/21 19:23:08;;;;;;;;;;;24.70;69.40;;;;;;5043863;28;20028;-82
2022/08/21 19:25:37;;;;;;;;;;;24.70;69.50;;;;;;5043986;28;20004;-82
2022/08/21 19:28:08;;;;;;;;;;;24.70;69.40;;;;;;5043800;28;19921;-82
2022/08/21 19:30:36;;;;;;;;;;;24.70;69.50;;;;;;5044554;28;19921;-83
2022/08/21 19:33:03;;;;;;;;;;;24.70;69.40;;;;;;5045147;28;19989;-83
2022/08/21 19:35:30;;;;;;;;;;;24.70;69.40;;;;;;5045100;28;19980;-83
2022/08/21 19:37:56;;;;;;;;;;;24.70;69.40;;;;;;5045150;28;20003;-83
2022/08/21 19:40:23;;;;;;;;;;;24.70;69.40;;;;;;5044359;28;20023;-83
2022/08/21 19:42:51;;;;;;;;;;;24.70;69.30;;;;;;5043327;28;19987;-83
2022/08/21 19:45:18;;;;;;;;;;;24.70;69.40;;;;;;5043651;28;20345;-82
2022/08/21 19:47:46;;;;;;;;;;;24.70;69.30;;;;;;5044781;28;19957;-82
2022/08/21 19:50:13;;;;;;;;;;;24.70;69.30;;;;;;5043264;28;19925;-83
2022/08/21 19:52:40;;;;;;;;;;;24.70;69.30;;;;;;5044594;28;19949;-83
2022/08/21 19:55:08;;;;;;;;;;;24.70;69.20;;;;;;5043506;28;20016;-82
2022/08/21 19:57:34;;;;;;;;;;;24.70;69.20;;;;;;5044092;28;20260;-82
2022/08/21 20:00:04;;;;;;;;;;;24.70;69.20;;;;;;5043020;28;20012;-82
2022/08/21 20:02:30;;;;;;;;;;;24.70;69.20;;;;;;5043212;28;19929;-82
2022/08/21 20:04:57;;;;;;;;;;;24.70;69.10;;;;;;5044304;28;19956;-82
2022/08/21 20:07:24;;;;;;;;;;;24.70;69.10;;;;;;5046806;28;19960;-83
2022/08/21 20:09:50;;;;;;;;;;;24.70;69.10;;;;;;5047020;28;20012;-83
2022/08/21 20:12:18;;;;;;;;;;;24.70;69.10;;;;;;5049052;28;19921;-84
2022/08/21 20:14:47;;;;;;;;;;;24.70;69.10;;;;;;5049759;28;19921;-83
2022/08/21 20:17:18;;;;;;;;;;;24.70;69.10;;;;;;5049583;28;19968;-82
2022/08/21 20:19:45;;;;;;;;;;;24.70;69.10;;;;;;5046346;28;19921;-83
2022/08/21 20:22:12;;;;;;;;;;;24.70;69.00;;;;;;5045601;28;20008;-81
2022/08/21 20:24:40;;;;;;;;;;;24.70;68.90;;;;;;5047089;28;20007;-82
2022/08/21 20:27:08;;;;;;;;;;;24.70;68.90;;;;;;5039923;28;19921;-82
2022/08/21 20:29:35;;;;;;;;;;;24.70;69.00;;;;;;5039489;28;20400;-82
2022/08/21 20:32:03;;;;;;;;;;;24.70;69.00;;;;;;5040124;28;19980;-82
2022/08/21 20:34:31;;;;;;;;;;;24.70;69.00;;;;;;5039726;28;19928;-82
2022/08/21 20:36:58;;;;;;;;;;;24.70;69.00;;;;;;5040172;28;19971;-82
2022/08/21 20:39:25;;;;;;;;;;;24.70;69.00;;;;;;5039965;28;19972;-80
2022/08/21 20:41:52;;;;;;;;;;;24.70;69.00;;;;;;5038983;28;19960;-82
2022/08/21 20:44:19;;;;;;;;;;;24.70;69.00;;;;;;5039173;28;19932;-81
2022/08/21 20:46:46;;;;;;;;;;;24.70;69.10;;;;;;5038521;28;20066;-81
2022/08/21 20:49:17;;;;;;;;;;;24.70;69.10;;;;;;5038248;28;19983;-81
2022/08/21 20:51:46;;;;;;;;;;;24.70;69.10;;;;;;5038197;28;20288;-81
2022/08/21 20:54:18;;;;;;;;;;;24.70;69.20;;;;;;5037927;28;19920;-81
2022/08/21 20:56:46;;;;;;;;;;;24.70;69.20;;;;;;5038001;28;19944;-81
2022/08/21 20:59:22;;;;;;;;;;;24.70;69.30;;;;;;5037421;28;20012;-81
2022/08/21 21:01:50;;;;;;;;;;;24.70;69.30;;;;;;5038708;28;19921;-81
2022/08/21 21:04:24;;;;;;;;;;;24.70;69.40;;;;;;5036938;28;20336;-81
2022/08/21 21:06:52;;;;;;;;;;;24.70;69.40;;;;;;5036423;28;19921;-81
2022/08/21 21:09:21;;;;;;;;;;;24.70;69.50;;;;;;5036076;28;19925;-81
2022/08/21 21:11:50;;;;;;;;;;;24.70;69.50;;;;;;5035984;28;20402;-81
2022/08/21 21:14:21;;;;;;;;;;;24.70;69.50;;;;;;5035665;28;19927;-82
2022/08/21 21:16:51;;;;;;;;;;;24.70;69.60;;;;;;5036235;28;20020;-82
2022/08/21 21:19:20;;;;;;;;;;;24.70;69.60;;;;;;5036119;28;20265;-81
2022/08/21 21:21:49;;;;;;;;;;;24.70;69.70;;;;;;5035718;28;19921;-81
2022/08/21 21:24:20;;;;;;;;;;;24.70;69.80;;;;;;5035747;28;19971;-81
2022/08/21 21:26:50;;;;;;;;;;;24.70;69.80;;;;;;5037247;28;19921;-81
2022/08/21 21:29:19;;;;;;;;;;;24.70;69.90;;;;;;5046286;28;20012;-81
2022/08/21 21:31:46;;;;;;;;;;;24.70;70.00;;;;;;5045297;28;19920;-81
2022/08/21 21:34:13;;;;;;;;;;;24.70;70.00;;;;;;5045980;28;19968;-81
2022/08/21 21:36:42;;;;;;;;;;;24.70;70.10;;;;;;5046409;28;20339;-81
2022/08/21 21:39:10;;;;;;;;;;;24.70;70.20;;;;;;5038545;28;20417;-79
2022/08/21 21:41:43;;;;;;;;;;;24.70;70.20;;;;;;5035423;28;20436;-78
2022/08/21 21:44:28;;;;;;;;;;;24.70;70.30;;;;;;5035693;28;19996;-79
2022/08/21 21:46:57;;;;;;;;;;;24.70;71.10;;;;;;5028463;28;19940;-78
2022/08/21 21:49:42;;;;;;;;;;;24.70;70.40;;;;;;5035222;28;19925;-78
2022/08/21 21:52:14;;;;;;;;;;;24.70;70.50;;;;;;5036001;28;19928;-78
2022/08/21 21:54:59;;;;;;;;;;;24.70;70.60;;;;;;5035767;28;19921;-79
2022/08/21 21:57:39;;;;;;;;;;;24.70;70.70;;;;;;5037321;28;20289;-79
2022/08/21 22:00:08;;;;;;;;;;;24.70;70.80;;;;;;5043130;28;20347;-79
2022/08/21 22:02:42;;;;;;;;;;;24.80;71.00;;;;;;5040105;28;20331;-79
2022/08/21 22:05:11;;;;;;;;;;;24.70;71.00;;;;;;5039429;28;19993;-79
2022/08/21 22:07:43;;;;;;;;;;;24.80;71.40;;;;;;5037447;28;20016;-79
2022/08/21 22:10:15;;;;;;;;;;;24.80;71.50;;;;;;5037867;28;19968;-79
2022/08/21 22:12:47;;;;;;;;;;;24.80;71.80;;;;;;5037750;28;20007;-79
2022/08/21 22:15:14;;;;;;;;;;;24.80;71.90;;;;;;5036503;28;20288;-79
2022/08/21 22:17:45;;;;;;;;;;;24.80;72.20;;;;;;5036359;28;20016;-79
2022/08/21 22:20:13;;;;;;;;;;;24.80;72.30;;;;;;5037005;28;19925;-77
